sensor_id;sensor_type;location;lat;lon;timestamp;P1;durP1;ratioP1;P2;durP2;ratioP2
36989;SDS011;22898;52.102;5.776;2023-10-09T00:02:02;15.40;;;6.78;;
36989;SDS011;22898;52.102;5.776;2023-10-09T00:04:31;22.73;;;8.45;;
36989;SDS011;22898;52.102;5.776;2023-10-09T00:06:56;14.85;;;6.97;;
36989;SDS011;22898;52.102;5.776;2023-10-09T00:09:24;15.27;;;6.90;;
36989;SDS011;22898;52.102;5.776;2023-10-09T00:11:50;21.73;;;8.43;;
36989;SDS011;22898;52.102;5.776;2023-10-09T00:14:31;18.50;;;7.50;;
36989;SDS011;22898;52.102;5.776;2023-10-09T00:17:04;15.02;;;6.85;;
36989;SDS011;22898;52.102;5.776;2023-10-09T00:19:50;13.77;;;7.00;;
36989;SDS011;22898;52.102;5.776;2023-10-09T00:22:24;17.85;;;6.97;;
36989;SDS011;22898;52.102;5.776;2023-10-09T00:24:54;17.13;;;6.60;;
36989;SDS011;22898;52.102;5.776;2023-10-09T00:27:37;14.52;;;6.47;;
36989;SDS011;22898;52.102;5.776;2023-10-09T00:30:08;13.93;;;6.70;;
36989;SDS011;22898;52.102;5.776;2023-10-09T00:32:36;14.77;;;6.95;;
36989;SDS011;22898;52.102;5.776;2023-10-09T00:35:02;19.45;;;7.97;;
36989;SDS011;22898;52.102;5.776;2023-10-09T00:37:48;14.80;;;7.25;;
36989;SDS011;22898;52.102;5.776;2023-10-09T00:40:16;14.55;;;7.22;;
36989;SDS011;22898;52.102;5.776;2023-10-09T00:42:48;16.17;;;7.72;;
36989;SDS011;22898;52.102;5.776;2023-10-09T00:45:14;16.77;;;7.07;;
36989;SDS011;22898;52.102;5.776;2023-10-09T00:47:49;13.88;;;6.05;;
36989;SDS011;22898;52.102;5.776;2023-10-09T00:50:16;14.35;;;6.40;;
36989;SDS011;22898;52.102;5.776;2023-10-09T00:52:47;16.98;;;7.88;;
36989;SDS011;22898;52.102;5.776;2023-10-09T00:55:17;16.93;;;7.43;;
36989;SDS011;22898;52.102;5.776;2023-10-09T00:57:52;13.07;;;6.35;;
36989;SDS011;22898;52.102;5.776;2023-10-09T01:00:24;13.73;;;6.63;;
36989;SDS011;22898;52.102;5.776;2023-10-09T01:03:01;13.83;;;6.17;;
36989;SDS011;22898;52.102;5.776;2023-10-09T01:05:56;13.65;;;6.13;;
36989;SDS011;22898;52.102;5.776;2023-10-09T01:08:38;14.00;;;6.50;;
36989;SDS011;22898;52.102;5.776;2023-10-09T01:11:04;19.33;;;7.68;;
36989;SDS011;22898;52.102;5.776;2023-10-09T01:13:34;14.35;;;7.15;;
36989;SDS011;22898;52.102;5.776;2023-10-09T01:16:17;14.02;;;6.60;;
36989;SDS011;22898;52.102;5.776;2023-10-09T01:18:50;13.65;;;6.82;;
36989;SDS011;22898;52.102;5.776;2023-10-09T01:21:17;17.92;;;8.10;;
36989;SDS011;22898;52.102;5.776;2023-10-09T01:23:44;17.45;;;7.72;;
36989;SDS011;22898;52.102;5.776;2023-10-09T01:26:29;14.55;;;7.43;;
36989;SDS011;22898;52.102;5.776;2023-10-09T01:29:09;15.43;;;7.18;;
36989;SDS011;22898;52.102;5.776;2023-10-09T01:31:48;16.27;;;7.15;;
36989;SDS011;22898;52.102;5.776;2023-10-09T01:34:25;13.40;;;7.30;;
36989;SDS011;22898;52.102;5.776;2023-10-09T01:37:06;17.73;;;8.18;;
36989;SDS011;22898;52.102;5.776;2023-10-09T01:39:37;18.85;;;7.28;;
36989;SDS011;22898;52.102;5.776;2023-10-09T01:42:07;16.00;;;7.65;;
36989;SDS011;22898;52.102;5.776;2023-10-09T01:44:34;18.83;;;8.02;;
36989;SDS011;22898;52.102;5.776;2023-10-09T01:47:00;16.67;;;7.63;;
36989;SDS011;22898;52.102;5.776;2023-10-09T01:49:36;16.83;;;8.38;;
36989;SDS011;22898;52.102;5.776;2023-10-09T01:52:06;16.85;;;7.38;;
36989;SDS011;22898;52.102;5.776;2023-10-09T01:54:37;14.05;;;6.80;;
36989;SDS011;22898;52.102;5.776;2023-10-09T01:57:08;16.17;;;7.03;;
36989;SDS011;22898;52.102;5.776;2023-10-09T01:59:36;18.40;;;7.95;;
36989;SDS011;22898;52.102;5.776;2023-10-09T02:02:09;16.02;;;7.75;;
36989;SDS011;22898;52.102;5.776;2023-10-09T02:04:51;13.45;;;6.57;;
36989;SDS011;22898;52.102;5.776;2023-10-09T02:07:35;14.55;;;7.05;;
36989;SDS011;22898;52.102;5.776;2023-10-09T02:10:17;12.77;;;6.95;;
36989;SDS011;22898;52.102;5.776;2023-10-09T02:12:50;14.38;;;6.97;;
36989;SDS011;22898;52.102;5.776;2023-10-09T02:15:25;14.18;;;6.93;;
36989;SDS011;22898;52.102;5.776;2023-10-09T02:18:13;14.65;;;6.13;;
36989;SDS011;22898;52.102;5.776;2023-10-09T02:20:49;14.68;;;7.00;;
36989;SDS011;22898;52.102;5.776;2023-10-09T02:23:34;11.43;;;6.43;;
36989;SDS011;22898;52.102;5.776;2023-10-09T02:26:09;14.88;;;6.75;;
36989;SDS011;22898;52.102;5.776;2023-10-09T02:28:42;14.63;;;6.57;;
36989;SDS011;22898;52.102;5.776;2023-10-09T02:31:17;12.80;;;5.88;;
36989;SDS011;22898;52.102;5.776;2023-10-09T02:33:47;13.50;;;6.45;;
36989;SDS011;22898;52.102;5.776;2023-10-09T02:36:15;9.85;;;6.50;;
36989;SDS011;22898;52.102;5.776;2023-10-09T02:38:41;16.92;;;6.45;;
36989;SDS011;22898;52.102;5.776;2023-10-09T02:41:08;16.05;;;6.80;;
36989;SDS011;22898;52.102;5.776;2023-10-09T02:43:36;11.48;;;5.75;;
36989;SDS011;22898;52.102;5.776;2023-10-09T02:46:13;15.63;;;6.00;;
36989;SDS011;22898;52.102;5.776;2023-10-09T02:48:42;15.32;;;6.35;;
36989;SDS011;22898;52.102;5.776;2023-10-09T02:51:10;10.75;;;5.45;;
36989;SDS011;22898;52.102;5.776;2023-10-09T02:53:46;11.05;;;5.47;;
36989;SDS011;22898;52.102;5.776;2023-10-09T02:56:14;11.93;;;6.25;;
36989;SDS011;22898;52.102;5.776;2023-10-09T02:58:46;18.45;;;7.15;;
36989;SDS011;22898;52.102;5.776;2023-10-09T03:01:13;12.98;;;6.13;;
36989;SDS011;22898;52.102;5.776;2023-10-09T03:03:39;10.52;;;5.47;;
36989;SDS011;22898;52.102;5.776;2023-10-09T03:06:10;12.15;;;5.47;;
36989;SDS011;22898;52.102;5.776;2023-10-09T03:08:37;11.25;;;5.75;;
36989;SDS011;22898;52.102;5.776;2023-10-09T03:11:07;13.55;;;6.50;;
36989;SDS011;22898;52.102;5.776;2023-10-09T03:13:38;10.95;;;6.10;;
36989;SDS011;22898;52.102;5.776;2023-10-09T03:16:10;12.82;;;5.95;;
36989;SDS011;22898;52.102;5.776;2023-10-09T03:18:41;13.40;;;5.45;;
36989;SDS011;22898;52.102;5.776;2023-10-09T03:21:07;15.35;;;6.80;;
36989;SDS011;22898;52.102;5.776;2023-10-09T03:23:34;10.50;;;4.93;;
36989;SDS011;22898;52.102;5.776;2023-10-09T03:25:59;12.48;;;6.03;;
36989;SDS011;22898;52.102;5.776;2023-10-09T03:28:25;14.63;;;5.57;;
36989;SDS011;22898;52.102;5.776;2023-10-09T03:30:51;12.75;;;5.57;;
36989;SDS011;22898;52.102;5.776;2023-10-09T03:33:18;11.90;;;6.28;;
36989;SDS011;22898;52.102;5.776;2023-10-09T03:35:43;16.13;;;6.63;;
36989;SDS011;22898;52.102;5.776;2023-10-09T03:38:09;11.93;;;5.43;;
36989;SDS011;22898;52.102;5.776;2023-10-09T03:40:42;11.63;;;6.20;;
36989;SDS011;22898;52.102;5.776;2023-10-09T03:43:09;13.05;;;5.53;;
36989;SDS011;22898;52.102;5.776;2023-10-09T03:45:36;11.65;;;5.45;;
36989;SDS011;22898;52.102;5.776;2023-10-09T03:48:04;12.88;;;5.68;;
36989;SDS011;22898;52.102;5.776;2023-10-09T03:50:51;11.02;;;5.70;;
36989;SDS011;22898;52.102;5.776;2023-10-09T03:53:33;11.98;;;6.03;;
36989;SDS011;22898;52.102;5.776;2023-10-09T03:56:04;12.07;;;5.68;;
36989;SDS011;22898;52.102;5.776;2023-10-09T03:58:37;14.43;;;6.28;;
36989;SDS011;22898;52.102;5.776;2023-10-09T04:01:07;9.43;;;5.88;;
36989;SDS011;22898;52.102;5.776;2023-10-09T04:03:35;11.40;;;6.00;;
36989;SDS011;22898;52.102;5.776;2023-10-09T04:06:02;12.32;;;7.05;;
36989;SDS011;22898;52.102;5.776;2023-10-09T04:08:29;16.38;;;7.18;;
36989;SDS011;22898;52.102;5.776;2023-10-09T04:10:55;13.73;;;6.75;;
36989;SDS011;22898;52.102;5.776;2023-10-09T04:13:27;11.00;;;6.47;;
36989;SDS011;22898;52.102;5.776;2023-10-09T04:15:59;12.68;;;5.88;;
36989;SDS011;22898;52.102;5.776;2023-10-09T04:18:47;13.00;;;6.03;;
36989;SDS011;22898;52.102;5.776;2023-10-09T04:21:13;12.00;;;5.95;;
36989;SDS011;22898;52.102;5.776;2023-10-09T04:23:43;16.45;;;6.25;;
36989;SDS011;22898;52.102;5.776;2023-10-09T04:26:33;14.45;;;6.82;;
36989;SDS011;22898;52.102;5.776;2023-10-09T04:29:00;14.60;;;6.55;;
36989;SDS011;22898;52.102;5.776;2023-10-09T04:31:27;13.57;;;5.90;;
36989;SDS011;22898;52.102;5.776;2023-10-09T04:33:57;16.02;;;5.55;;
36989;SDS011;22898;52.102;5.776;2023-10-09T04:36:42;10.32;;;5.78;;
36989;SDS011;22898;52.102;5.776;2023-10-09T04:39:21;14.43;;;6.78;;
36989;SDS011;22898;52.102;5.776;2023-10-09T04:42:01;10.10;;;5.63;;
36989;SDS011;22898;52.102;5.776;2023-10-09T04:45:01;13.95;;;5.88;;
36989;SDS011;22898;52.102;5.776;2023-10-09T04:47:34;14.80;;;6.30;;
36989;SDS011;22898;52.102;5.776;2023-10-09T04:50:04;9.85;;;5.32;;
36989;SDS011;22898;52.102;5.776;2023-10-09T04:53:00;13.65;;;5.82;;
36989;SDS011;22898;52.102;5.776;2023-10-09T04:55:41;10.95;;;6.47;;
36989;SDS011;22898;52.102;5.776;2023-10-09T04:58:18;10.50;;;5.78;;
36989;SDS011;22898;52.102;5.776;2023-10-09T05:00:51;9.90;;;5.90;;
36989;SDS011;22898;52.102;5.776;2023-10-09T05:03:23;12.60;;;6.05;;
36989;SDS011;22898;52.102;5.776;2023-10-09T05:05:54;15.40;;;6.28;;
36989;SDS011;22898;52.102;5.776;2023-10-09T05:08:23;11.18;;;5.82;;
36989;SDS011;22898;52.102;5.776;2023-10-09T05:13:26;11.85;;;6.07;;
36989;SDS011;22898;52.102;5.776;2023-10-09T05:16:21;11.10;;;5.80;;
36989;SDS011;22898;52.102;5.776;2023-10-09T05:18:47;12.25;;;6.32;;
36989;SDS011;22898;52.102;5.776;2023-10-09T05:23:58;12.15;;;5.05;;
36989;SDS011;22898;52.102;5.776;2023-10-09T05:26:48;14.63;;;6.18;;
36989;SDS011;22898;52.102;5.776;2023-10-09T05:29:15;10.88;;;6.20;;
36989;SDS011;22898;52.102;5.776;2023-10-09T05:31:58;9.65;;;5.00;;
36989;SDS011;22898;52.102;5.776;2023-10-09T05:34:40;11.25;;;5.68;;
36989;SDS011;22898;52.102;5.776;2023-10-09T05:37:32;8.70;;;5.53;;
36989;SDS011;22898;52.102;5.776;2023-10-09T05:39:59;11.02;;;5.95;;
36989;SDS011;22898;52.102;5.776;2023-10-09T05:42:26;13.27;;;5.93;;
36989;SDS011;22898;52.102;5.776;2023-10-09T05:47:50;8.88;;;5.30;;
36989;SDS011;22898;52.102;5.776;2023-10-09T05:50:23;11.65;;;5.72;;
36989;SDS011;22898;52.102;5.776;2023-10-09T05:52:50;11.60;;;5.70;;
36989;SDS011;22898;52.102;5.776;2023-10-09T05:55:17;13.48;;;6.32;;
36989;SDS011;22898;52.102;5.776;2023-10-09T05:57:49;10.20;;;5.45;;
36989;SDS011;22898;52.102;5.776;2023-10-09T06:00:21;14.50;;;6.03;;
36989;SDS011;22898;52.102;5.776;2023-10-09T06:03:05;12.90;;;5.25;;
36989;SDS011;22898;52.102;5.776;2023-10-09T06:05:46;14.07;;;6.28;;
36989;SDS011;22898;52.102;5.776;2023-10-09T06:08:28;8.88;;;5.25;;
36989;SDS011;22898;52.102;5.776;2023-10-09T06:11:09;11.40;;;5.47;;
36989;SDS011;22898;52.102;5.776;2023-10-09T06:13:56;13.70;;;5.50;;
36989;SDS011;22898;52.102;5.776;2023-10-09T06:16:38;14.70;;;5.47;;
36989;SDS011;22898;52.102;5.776;2023-10-09T06:19:12;13.77;;;6.97;;
36989;SDS011;22898;52.102;5.776;2023-10-09T06:21:51;12.35;;;5.22;;
36989;SDS011;22898;52.102;5.776;2023-10-09T06:24:22;11.68;;;5.03;;
36989;SDS011;22898;52.102;5.776;2023-10-09T06:26:48;12.52;;;5.45;;
36989;SDS011;22898;52.102;5.776;2023-10-09T06:29:23;11.02;;;4.53;;
36989;SDS011;22898;52.102;5.776;2023-10-09T06:32:00;9.48;;;4.70;;
36989;SDS011;22898;52.102;5.776;2023-10-09T06:34:42;11.80;;;4.93;;
36989;SDS011;22898;52.102;5.776;2023-10-09T06:37:10;9.90;;;4.85;;
36989;SDS011;22898;52.102;5.776;2023-10-09T06:39:48;12.13;;;5.70;;
36989;SDS011;22898;52.102;5.776;2023-10-09T06:42:20;9.93;;;4.60;;
36989;SDS011;22898;52.102;5.776;2023-10-09T06:45:07;8.15;;;5.28;;
36989;SDS011;22898;52.102;5.776;2023-10-09T06:47:40;9.38;;;4.85;;
36989;SDS011;22898;52.102;5.776;2023-10-09T06:50:10;8.27;;;4.97;;
36989;SDS011;22898;52.102;5.776;2023-10-09T06:52:45;10.05;;;4.90;;
36989;SDS011;22898;52.102;5.776;2023-10-09T06:55:26;8.18;;;4.47;;
36989;SDS011;22898;52.102;5.776;2023-10-09T06:58:00;9.35;;;5.13;;
36989;SDS011;22898;52.102;5.776;2023-10-09T07:00:29;14.13;;;5.07;;
36989;SDS011;22898;52.102;5.776;2023-10-09T07:03:14;8.27;;;5.03;;
36989;SDS011;22898;52.102;5.776;2023-10-09T07:05:42;12.68;;;4.82;;
36989;SDS011;22898;52.102;5.776;2023-10-09T07:08:30;7.88;;;4.43;;
36989;SDS011;22898;52.102;5.776;2023-10-09T07:11:02;6.40;;;4.22;;
36989;SDS011;22898;52.102;5.776;2023-10-09T07:13:47;15.52;;;5.45;;
36989;SDS011;22898;52.102;5.776;2023-10-09T07:16:19;7.90;;;4.15;;
36989;SDS011;22898;52.102;5.776;2023-10-09T07:19:03;9.15;;;5.13;;
36989;SDS011;22898;52.102;5.776;2023-10-09T07:21:49;7.90;;;4.13;;
36989;SDS011;22898;52.102;5.776;2023-10-09T07:24:19;10.80;;;4.38;;
36989;SDS011;22898;52.102;5.776;2023-10-09T07:29:34;10.48;;;4.78;;
36989;SDS011;22898;52.102;5.776;2023-10-09T07:32:12;12.65;;;4.18;;
36989;SDS011;22898;52.102;5.776;2023-10-09T07:34:47;8.30;;;4.22;;
36989;SDS011;22898;52.102;5.776;2023-10-09T07:39:47;8.02;;;4.53;;
36989;SDS011;22898;52.102;5.776;2023-10-09T07:42:22;8.25;;;3.95;;
36989;SDS011;22898;52.102;5.776;2023-10-09T07:44:58;10.15;;;4.00;;
36989;SDS011;22898;52.102;5.776;2023-10-09T07:47:36;8.43;;;4.43;;
36989;SDS011;22898;52.102;5.776;2023-10-09T07:50:35;8.50;;;4.53;;
36989;SDS011;22898;52.102;5.776;2023-10-09T07:53:13;8.10;;;3.92;;
36989;SDS011;22898;52.102;5.776;2023-10-09T07:55:42;8.88;;;4.38;;
36989;SDS011;22898;52.102;5.776;2023-10-09T07:58:19;8.23;;;4.38;;
36989;SDS011;22898;52.102;5.776;2023-10-09T08:00:49;9.57;;;4.30;;
36989;SDS011;22898;52.102;5.776;2023-10-09T08:03:46;9.73;;;4.22;;
36989;SDS011;22898;52.102;5.776;2023-10-09T08:06:12;8.63;;;4.03;;
36989;SDS011;22898;52.102;5.776;2023-10-09T08:08:56;9.15;;;5.00;;
36989;SDS011;22898;52.102;5.776;2023-10-09T08:11:31;9.13;;;4.13;;
36989;SDS011;22898;52.102;5.776;2023-10-09T08:14:09;16.10;;;4.45;;
36989;SDS011;22898;52.102;5.776;2023-10-09T08:16:54;8.45;;;4.25;;
36989;SDS011;22898;52.102;5.776;2023-10-09T08:19:38;9.73;;;4.60;;
36989;SDS011;22898;52.102;5.776;2023-10-09T08:22:18;8.52;;;4.57;;
36989;SDS011;22898;52.102;5.776;2023-10-09T08:24:49;15.07;;;5.25;;
36989;SDS011;22898;52.102;5.776;2023-10-09T08:27:21;6.80;;;4.25;;
36989;SDS011;22898;52.102;5.776;2023-10-09T08:29:59;12.48;;;4.60;;
36989;SDS011;22898;52.102;5.776;2023-10-09T08:32:45;8.52;;;4.68;;
36989;SDS011;22898;52.102;5.776;2023-10-09T08:35:26;7.13;;;4.00;;
36989;SDS011;22898;52.102;5.776;2023-10-09T08:37:55;8.15;;;4.07;;
36989;SDS011;22898;52.102;5.776;2023-10-09T08:40:34;6.95;;;3.97;;
36989;SDS011;22898;52.102;5.776;2023-10-09T08:43:08;10.40;;;4.60;;
36989;SDS011;22898;52.102;5.776;2023-10-09T08:45:37;9.23;;;4.85;;
36989;SDS011;22898;52.102;5.776;2023-10-09T08:48:04;8.95;;;4.35;;
36989;SDS011;22898;52.102;5.776;2023-10-09T08:50:34;10.10;;;4.35;;
36989;SDS011;22898;52.102;5.776;2023-10-09T08:53:01;8.93;;;4.70;;
36989;SDS011;22898;52.102;5.776;2023-10-09T08:55:29;9.32;;;4.13;;
36989;SDS011;22898;52.102;5.776;2023-10-09T08:57:55;9.65;;;4.43;;
36989;SDS011;22898;52.102;5.776;2023-10-09T09:00:23;9.60;;;4.57;;
36989;SDS011;22898;52.102;5.776;2023-10-09T09:02:50;6.80;;;4.28;;
36989;SDS011;22898;52.102;5.776;2023-10-09T09:05:17;10.38;;;4.35;;
36989;SDS011;22898;52.102;5.776;2023-10-09T09:07:44;10.48;;;5.28;;
36989;SDS011;22898;52.102;5.776;2023-10-09T09:10:10;9.05;;;4.15;;
36989;SDS011;22898;52.102;5.776;2023-10-09T09:12:56;10.63;;;4.43;;
36989;SDS011;22898;52.102;5.776;2023-10-09T09:15:29;14.48;;;4.50;;
36989;SDS011;22898;52.102;5.776;2023-10-09T09:18:04;9.27;;;4.47;;
36989;SDS011;22898;52.102;5.776;2023-10-09T09:20:31;9.55;;;4.00;;
36989;SDS011;22898;52.102;5.776;2023-10-09T09:23:05;8.70;;;4.30;;
36989;SDS011;22898;52.102;5.776;2023-10-09T09:25:47;11.18;;;4.68;;
36989;SDS011;22898;52.102;5.776;2023-10-09T09:28:13;6.82;;;3.95;;
36989;SDS011;22898;52.102;5.776;2023-10-09T09:30:46;7.07;;;4.25;;
36989;SDS011;22898;52.102;5.776;2023-10-09T09:33:22;8.55;;;4.38;;
36989;SDS011;22898;52.102;5.776;2023-10-09T09:36:07;9.55;;;4.03;;
36989;SDS011;22898;52.102;5.776;2023-10-09T09:38:36;12.85;;;3.78;;
36989;SDS011;22898;52.102;5.776;2023-10-09T09:41:15;9.80;;;4.65;;
36989;SDS011;22898;52.102;5.776;2023-10-09T09:43:54;14.18;;;4.75;;
36989;SDS011;22898;52.102;5.776;2023-10-09T09:46:31;10.40;;;4.53;;
36989;SDS011;22898;52.102;5.776;2023-10-09T09:49:05;10.80;;;4.13;;
36989;SDS011;22898;52.102;5.776;2023-10-09T09:51:37;14.82;;;4.43;;
36989;SDS011;22898;52.102;5.776;2023-10-09T09:54:02;8.90;;;4.18;;
36989;SDS011;22898;52.102;5.776;2023-10-09T09:56:33;8.43;;;4.25;;
36989;SDS011;22898;52.102;5.776;2023-10-09T09:59:04;13.00;;;5.00;;
36989;SDS011;22898;52.102;5.776;2023-10-09T10:01:32;6.40;;;3.88;;
36989;SDS011;22898;52.102;5.776;2023-10-09T10:04:05;9.13;;;4.10;;
36989;SDS011;22898;52.102;5.776;2023-10-09T10:06:36;10.85;;;4.68;;
36989;SDS011;22898;52.102;5.776;2023-10-09T10:09:06;9.75;;;4.53;;
36989;SDS011;22898;52.102;5.776;2023-10-09T10:11:41;10.32;;;4.15;;
36989;SDS011;22898;52.102;5.776;2023-10-09T10:14:09;8.15;;;4.57;;
36989;SDS011;22898;52.102;5.776;2023-10-09T10:22:29;7.40;;;3.63;;
36989;SDS011;22898;52.102;5.776;2023-10-09T10:24:58;7.07;;;4.28;;
36989;SDS011;22898;52.102;5.776;2023-10-09T10:27:28;9.57;;;3.97;;
36989;SDS011;22898;52.102;5.776;2023-10-09T10:32:57;9.85;;;4.38;;
36989;SDS011;22898;52.102;5.776;2023-10-09T10:35:34;11.15;;;4.30;;
36989;SDS011;22898;52.102;5.776;2023-10-09T10:38:24;8.07;;;4.05;;
36989;SDS011;22898;52.102;5.776;2023-10-09T10:41:07;10.70;;;4.40;;
36989;SDS011;22898;52.102;5.776;2023-10-09T10:43:41;7.50;;;3.60;;
36989;SDS011;22898;52.102;5.776;2023-10-09T10:46:18;11.77;;;3.50;;
36989;SDS011;22898;52.102;5.776;2023-10-09T10:49:06;10.75;;;3.78;;
36989;SDS011;22898;52.102;5.776;2023-10-09T10:51:46;8.90;;;4.00;;
36989;SDS011;22898;52.102;5.776;2023-10-09T10:54:26;7.32;;;3.63;;
36989;SDS011;22898;52.102;5.776;2023-10-09T10:56:58;8.55;;;4.07;;
36989;SDS011;22898;52.102;5.776;2023-10-09T10:59:32;13.98;;;3.78;;
36989;SDS011;22898;52.102;5.776;2023-10-09T11:02:09;10.60;;;3.85;;
36989;SDS011;22898;52.102;5.776;2023-10-09T11:04:35;12.23;;;3.53;;
36989;SDS011;22898;52.102;5.776;2023-10-09T11:07:01;7.68;;;3.10;;
36989;SDS011;22898;52.102;5.776;2023-10-09T11:09:46;7.40;;;3.30;;
36989;SDS011;22898;52.102;5.776;2023-10-09T11:12:31;8.98;;;4.53;;
36989;SDS011;22898;52.102;5.776;2023-10-09T11:15:07;9.48;;;3.25;;
36989;SDS011;22898;52.102;5.776;2023-10-09T11:20:33;7.00;;;3.50;;
36989;SDS011;22898;52.102;5.776;2023-10-09T11:23:00;6.45;;;3.72;;
36989;SDS011;22898;52.102;5.776;2023-10-09T11:25:39;8.10;;;3.35;;
36989;SDS011;22898;52.102;5.776;2023-10-09T11:28:18;12.93;;;4.18;;
36989;SDS011;22898;52.102;5.776;2023-10-09T11:31:06;10.80;;;3.28;;
36989;SDS011;22898;52.102;5.776;2023-10-09T11:36:10;9.45;;;2.80;;
36989;SDS011;22898;52.102;5.776;2023-10-09T11:38:36;9.23;;;3.40;;
36989;SDS011;22898;52.102;5.776;2023-10-09T11:41:12;6.32;;;3.15;;
36989;SDS011;22898;52.102;5.776;2023-10-09T11:43:49;8.90;;;3.28;;
36989;SDS011;22898;52.102;5.776;2023-10-09T11:46:23;8.95;;;4.45;;
36989;SDS011;22898;52.102;5.776;2023-10-09T11:49:13;8.60;;;3.85;;
36989;SDS011;22898;52.102;5.776;2023-10-09T11:51:50;8.75;;;3.97;;
36989;SDS011;22898;52.102;5.776;2023-10-09T11:54:48;7.63;;;3.72;;
36989;SDS011;22898;52.102;5.776;2023-10-09T11:57:14;6.57;;;3.05;;
36989;SDS011;22898;52.102;5.776;2023-10-09T11:59:42;7.10;;;3.38;;
36989;SDS011;22898;52.102;5.776;2023-10-09T12:02:08;7.15;;;3.40;;
36989;SDS011;22898;52.102;5.776;2023-10-09T12:04:38;9.43;;;4.00;;
36989;SDS011;22898;52.102;5.776;2023-10-09T12:07:07;8.38;;;3.35;;
36989;SDS011;22898;52.102;5.776;2023-10-09T12:09:35;9.82;;;3.72;;
36989;SDS011;22898;52.102;5.776;2023-10-09T12:12:02;10.93;;;3.45;;
36989;SDS011;22898;52.102;5.776;2023-10-09T12:14:28;7.45;;;3.63;;
36989;SDS011;22898;52.102;5.776;2023-10-09T12:16:58;9.10;;;3.80;;
36989;SDS011;22898;52.102;5.776;2023-10-09T12:19:30;9.95;;;3.47;;
36989;SDS011;22898;52.102;5.776;2023-10-09T12:22:05;9.70;;;3.30;;
36989;SDS011;22898;52.102;5.776;2023-10-09T12:24:35;6.47;;;2.90;;
36989;SDS011;22898;52.102;5.776;2023-10-09T12:27:02;6.72;;;3.30;;
36989;SDS011;22898;52.102;5.776;2023-10-09T12:29:34;7.93;;;3.65;;
36989;SDS011;22898;52.102;5.776;2023-10-09T12:32:00;6.90;;;3.67;;
36989;SDS011;22898;52.102;5.776;2023-10-09T12:34:26;6.72;;;3.10;;
36989;SDS011;22898;52.102;5.776;2023-10-09T12:36:52;7.70;;;3.50;;
36989;SDS011;22898;52.102;5.776;2023-10-09T12:39:19;9.07;;;3.65;;
36989;SDS011;22898;52.102;5.776;2023-10-09T12:41:48;7.57;;;3.53;;
36989;SDS011;22898;52.102;5.776;2023-10-09T12:44:14;6.35;;;3.30;;
36989;SDS011;22898;52.102;5.776;2023-10-09T12:46:43;5.63;;;2.85;;
36989;SDS011;22898;52.102;5.776;2023-10-09T12:49:17;9.23;;;3.33;;
36989;SDS011;22898;52.102;5.776;2023-10-09T12:51:52;6.53;;;3.22;;
36989;SDS011;22898;52.102;5.776;2023-10-09T12:54:18;8.77;;;3.03;;
36989;SDS011;22898;52.102;5.776;2023-10-09T12:56:52;7.65;;;3.40;;
36989;SDS011;22898;52.102;5.776;2023-10-09T12:59:18;6.03;;;3.42;;
36989;SDS011;22898;52.102;5.776;2023-10-09T13:01:46;7.45;;;3.25;;
36989;SDS011;22898;52.102;5.776;2023-10-09T13:04:17;9.20;;;3.15;;
36989;SDS011;22898;52.102;5.776;2023-10-09T13:06:46;8.18;;;3.22;;
36989;SDS011;22898;52.102;5.776;2023-10-09T13:09:12;8.32;;;3.60;;
36989;SDS011;22898;52.102;5.776;2023-10-09T13:11:41;8.52;;;3.15;;
36989;SDS011;22898;52.102;5.776;2023-10-09T13:14:07;8.63;;;3.03;;
36989;SDS011;22898;52.102;5.776;2023-10-09T13:16:41;8.10;;;3.55;;
36989;SDS011;22898;52.102;5.776;2023-10-09T13:19:08;9.88;;;3.33;;
36989;SDS011;22898;52.102;5.776;2023-10-09T13:21:36;8.25;;;3.22;;
36989;SDS011;22898;52.102;5.776;2023-10-09T13:24:04;9.07;;;3.90;;
36989;SDS011;22898;52.102;5.776;2023-10-09T13:26:30;8.32;;;3.78;;
36989;SDS011;22898;52.102;5.776;2023-10-09T13:28:58;7.13;;;3.67;;
36989;SDS011;22898;52.102;5.776;2023-10-09T13:31:24;6.50;;;2.90;;
36989;SDS011;22898;52.102;5.776;2023-10-09T13:33:51;10.48;;;3.45;;
36989;SDS011;22898;52.102;5.776;2023-10-09T13:36:23;7.53;;;3.10;;
36989;SDS011;22898;52.102;5.776;2023-10-09T13:38:57;8.77;;;3.30;;
36989;SDS011;22898;52.102;5.776;2023-10-09T13:41:43;7.10;;;3.00;;
36989;SDS011;22898;52.102;5.776;2023-10-09T13:44:09;12.57;;;3.58;;
36989;SDS011;22898;52.102;5.776;2023-10-09T13:46:34;7.82;;;3.15;;
36989;SDS011;22898;52.102;5.776;2023-10-09T13:49:09;6.93;;;3.97;;
36989;SDS011;22898;52.102;5.776;2023-10-09T13:51:39;8.70;;;3.15;;
36989;SDS011;22898;52.102;5.776;2023-10-09T13:54:12;5.13;;;3.28;;
36989;SDS011;22898;52.102;5.776;2023-10-09T13:56:45;7.15;;;3.15;;
36989;SDS011;22898;52.102;5.776;2023-10-09T13:59:18;8.02;;;3.42;;
36989;SDS011;22898;52.102;5.776;2023-10-09T14:01:48;9.75;;;3.65;;
36989;SDS011;22898;52.102;5.776;2023-10-09T14:04:24;5.68;;;2.92;;
36989;SDS011;22898;52.102;5.776;2023-10-09T14:06:50;7.72;;;3.83;;
36989;SDS011;22898;52.102;5.776;2023-10-09T14:09:26;6.90;;;3.03;;
36989;SDS011;22898;52.102;5.776;2023-10-09T14:11:59;4.95;;;2.75;;
36989;SDS011;22898;52.102;5.776;2023-10-09T14:14:36;9.23;;;3.30;;
36989;SDS011;22898;52.102;5.776;2023-10-09T14:17:12;10.88;;;2.97;;
36989;SDS011;22898;52.102;5.776;2023-10-09T14:22:06;9.07;;;3.42;;
36989;SDS011;22898;52.102;5.776;2023-10-09T14:24:32;9.15;;;2.97;;
36989;SDS011;22898;52.102;5.776;2023-10-09T14:26:59;14.07;;;4.30;;
36989;SDS011;22898;52.102;5.776;2023-10-09T14:29:29;6.68;;;3.20;;
36989;SDS011;22898;52.102;5.776;2023-10-09T14:31:56;8.52;;;3.13;;
36989;SDS011;22898;52.102;5.776;2023-10-09T14:34:28;10.75;;;3.35;;
36989;SDS011;22898;52.102;5.776;2023-10-09T14:37:00;10.68;;;3.67;;
36989;SDS011;22898;52.102;5.776;2023-10-09T14:39:26;7.22;;;3.50;;
36989;SDS011;22898;52.102;5.776;2023-10-09T14:41:52;7.75;;;2.85;;
36989;SDS011;22898;52.102;5.776;2023-10-09T14:44:22;9.13;;;3.78;;
36989;SDS011;22898;52.102;5.776;2023-10-09T14:46:49;8.15;;;3.75;;
36989;SDS011;22898;52.102;5.776;2023-10-09T14:49:15;13.30;;;3.83;;
36989;SDS011;22898;52.102;5.776;2023-10-09T14:51:46;8.05;;;3.33;;
36989;SDS011;22898;52.102;5.776;2023-10-09T14:54:12;7.47;;;3.38;;
36989;SDS011;22898;52.102;5.776;2023-10-09T14:56:41;7.15;;;3.25;;
36989;SDS011;22898;52.102;5.776;2023-10-09T14:59:06;8.18;;;3.45;;
36989;SDS011;22898;52.102;5.776;2023-10-09T15:01:33;7.60;;;3.38;;
36989;SDS011;22898;52.102;5.776;2023-10-09T15:03:58;7.50;;;3.47;;
36989;SDS011;22898;52.102;5.776;2023-10-09T15:06:29;9.07;;;4.15;;
36989;SDS011;22898;52.102;5.776;2023-10-09T15:08:56;6.97;;;3.50;;
36989;SDS011;22898;52.102;5.776;2023-10-09T15:11:23;6.13;;;3.05;;
36989;SDS011;22898;52.102;5.776;2023-10-09T15:13:51;9.07;;;3.30;;
36989;SDS011;22898;52.102;5.776;2023-10-09T15:16:17;10.68;;;4.03;;
36989;SDS011;22898;52.102;5.776;2023-10-09T15:18:46;11.80;;;4.10;;
36989;SDS011;22898;52.102;5.776;2023-10-09T15:21:15;8.95;;;3.60;;
36989;SDS011;22898;52.102;5.776;2023-10-09T15:23:41;9.05;;;3.78;;
36989;SDS011;22898;52.102;5.776;2023-10-09T15:26:09;7.78;;;3.25;;
36989;SDS011;22898;52.102;5.776;2023-10-09T15:28:35;9.23;;;3.50;;
36989;SDS011;22898;52.102;5.776;2023-10-09T15:31:00;5.22;;;2.90;;
36989;SDS011;22898;52.102;5.776;2023-10-09T15:33:26;10.13;;;4.15;;
36989;SDS011;22898;52.102;5.776;2023-10-09T15:35:56;7.20;;;2.83;;
36989;SDS011;22898;52.102;5.776;2023-10-09T15:38:21;11.85;;;3.65;;
36989;SDS011;22898;52.102;5.776;2023-10-09T15:40:48;9.60;;;3.20;;
36989;SDS011;22898;52.102;5.776;2023-10-09T15:43:14;6.00;;;3.42;;
36989;SDS011;22898;52.102;5.776;2023-10-09T15:45:43;9.25;;;3.03;;